createdAt,value
2018-09-23T00:00:58.520Z,101403.00
2018-09-23T00:03:01.541Z,101396.00
2018-09-23T00:05:04.631Z,101395.00
2018-09-23T00:07:07.578Z,101391.00
2018-09-23T00:09:10.662Z,101394.00
2018-09-23T00:11:13.642Z,101398.00
2018-09-23T00:13:16.578Z,101395.00
2018-09-23T00:15:19.601Z,101398.00
2018-09-23T00:17:22.574Z,101397.00
2018-09-23T00:19:25.529Z,101391.00
2018-09-23T00:21:29.959Z,101393.00
2018-09-23T00:23:32.997Z,101385.00
2018-09-23T00:25:35.958Z,101387.00
2018-09-23T00:27:38.953Z,101386.00
2018-09-23T00:29:48.220Z,101393.00
2018-09-23T00:31:51.760Z,101384.00
2018-09-23T00:33:54.686Z,101386.00
2018-09-23T00:35:59.398Z,101383.00
2018-09-23T00:38:02.526Z,101382.00
2018-09-23T00:40:05.849Z,101390.00
2018-09-23T00:42:08.890Z,101397.00
2018-09-23T00:44:11.895Z,101399.00
2018-09-23T00:46:14.888Z,101396.00
2018-09-23T00:48:17.987Z,101393.00
2018-09-23T00:50:20.969Z,101385.00
2018-09-23T00:52:24.070Z,101382.00
2018-09-23T00:54:28.881Z,101380.00
2018-09-23T00:56:31.840Z,101379.00
2018-09-23T00:58:35.238Z,101379.00
2018-09-23T01:00:38.273Z,101381.00
2018-09-23T01:02:41.241Z,101379.00
2018-09-23T01:04:44.255Z,101379.00
2018-09-23T01:06:47.411Z,101386.00
2018-09-23T01:08:50.366Z,101384.00
2018-09-23T01:10:53.412Z,101387.00
2018-09-23T01:12:57.798Z,101386.00
2018-09-23T01:15:00.795Z,101385.00
2018-09-23T01:17:03.763Z,101387.00
2018-09-23T01:19:06.738Z,101378.00
2018-09-23T01:21:09.716Z,101376.00
2018-09-23T01:23:12.664Z,101373.00
2018-09-23T01:25:15.615Z,101359.00
2018-09-23T01:27:18.618Z,101356.00
2018-09-23T01:29:21.585Z,101356.00
2018-09-23T01:31:24.633Z,101356.00
2018-09-23T01:33:28.929Z,101355.00
2018-09-23T01:35:31.908Z,101352.00
2018-09-23T01:37:34.876Z,101361.00
2018-09-23T01:39:37.880Z,101353.00
2018-09-23T01:41:40.863Z,101353.00
2018-09-23T01:43:43.834Z,101349.00
2018-09-23T01:45:46.847Z,101350.00
2018-09-23T01:47:49.779Z,101345.00
2018-09-23T01:49:52.760Z,101348.00
2018-09-23T01:51:55.743Z,101349.00
2018-09-23T01:53:58.942Z,101346.00
2018-09-23T01:56:01.924Z,101339.00
2018-09-23T01:58:04.966Z,101342.00
2018-09-23T02:00:07.991Z,101345.00
2018-09-23T02:02:10.961Z,101343.00
2018-09-23T02:04:13.935Z,101340.00
2018-09-23T02:06:16.874Z,101347.00
2018-09-23T02:08:19.842Z,101343.00
2018-09-23T02:10:22.890Z,101337.00
2018-09-23T02:12:27.850Z,101339.00
2018-09-23T02:14:30.931Z,101337.00
2018-09-23T02:16:33.895Z,101344.00
2018-09-23T02:18:36.849Z,101349.00
2018-09-23T02:20:39.832Z,101349.00
2018-09-23T02:22:43.414Z,101345.00
2018-09-23T02:24:46.360Z,101345.00
2018-09-23T02:26:49.327Z,101340.00
2018-09-23T02:28:52.411Z,101336.00
2018-09-23T02:30:55.388Z,101330.00
2018-09-23T02:32:59.733Z,101326.00
2018-09-23T02:35:02.719Z,101328.00
2018-09-23T02:37:05.762Z,101336.00
2018-09-23T02:39:09.903Z,101334.00
2018-09-23T02:41:12.924Z,101330.00
2018-09-23T02:43:15.894Z,101327.00
2018-09-23T02:45:18.914Z,101317.00
2018-09-23T02:47:21.914Z,101318.00
2018-09-23T02:49:24.942Z,101318.00
2018-09-23T02:51:29.444Z,101314.00
2018-09-23T02:53:32.432Z,101303.00
2018-09-23T02:55:35.383Z,101298.00
2018-09-23T02:57:38.347Z,101311.00
2018-09-23T02:59:41.307Z,101309.00
2018-09-23T03:01:44.254Z,101308.00
2018-09-23T03:03:47.232Z,101304.00
2018-09-23T03:05:50.269Z,101303.00
2018-09-23T03:07:53.255Z,101298.00
2018-09-23T03:09:57.403Z,101299.00
2018-09-23T03:12:00.536Z,101297.00
2018-09-23T03:14:03.504Z,101301.00
2018-09-23T03:16:06.548Z,101299.00
2018-09-23T03:18:09.575Z,101296.00
2018-09-23T03:20:12.525Z,101296.00
2018-09-23T03:22:15.500Z,101292.00
2018-09-23T03:24:18.506Z,101292.00
2018-09-23T03:26:21.487Z,101286.00
2018-09-23T03:28:24.415Z,101286.00
2018-09-23T03:30:29.440Z,101294.00
2018-09-23T03:32:32.389Z,101283.00
2018-09-23T03:34:35.399Z,101284.00
2018-09-23T03:36:38.393Z,101289.00
2018-09-23T03:38:41.407Z,101292.00
2018-09-23T03:40:44.337Z,101298.00
2018-09-23T03:42:47.491Z,101301.00
2018-09-23T03:44:50.468Z,101296.00
2018-09-23T03:46:53.510Z,101289.00
2018-09-23T03:48:58.072Z,101287.00
2018-09-23T03:51:01.070Z,101284.00
2018-09-23T03:53:04.208Z,101284.00
2018-09-23T03:55:07.187Z,101282.00
2018-09-23T03:57:10.135Z,101274.00
2018-09-23T03:59:13.525Z,101273.00
2018-09-23T04:01:16.527Z,101268.00
2018-09-23T04:03:19.803Z,101262.00
2018-09-23T04:05:22.820Z,101259.00
2018-09-23T04:07:25.774Z,101258.00
2018-09-23T04:09:30.002Z,101263.00
2018-09-23T04:11:32.945Z,101260.00
2018-09-23T04:13:36.097Z,101260.00
2018-09-23T04:15:39.129Z,101262.00
2018-09-23T04:17:42.141Z,101268.00
2018-09-23T04:19:45.097Z,101264.00
2018-09-23T04:21:48.215Z,101269.00
2018-09-23T04:23:51.149Z,101276.00
2018-09-23T04:25:54.103Z,101278.00
2018-09-23T04:27:58.794Z,101273.00
2018-09-23T04:30:01.748Z,101276.00
2018-09-23T04:32:04.841Z,101273.00
2018-09-23T04:34:07.810Z,101279.00
2018-09-23T04:36:10.810Z,101267.00
2018-09-23T04:38:13.748Z,101268.00
2018-09-23T04:40:16.939Z,101263.00
2018-09-23T04:42:19.890Z,101264.00
2018-09-23T04:44:22.873Z,101268.00
2018-09-23T04:46:27.513Z,101264.00
2018-09-23T04:48:30.470Z,101261.00
2018-09-23T04:50:33.446Z,101260.00
2018-09-23T04:52:36.384Z,101255.00
2018-09-23T04:54:39.320Z,101250.00
2018-09-23T04:56:42.260Z,101252.00
2018-09-23T04:58:45.231Z,101253.00
2018-09-23T05:00:48.418Z,101251.00
2018-09-23T05:02:51.355Z,101247.00
2018-09-23T05:04:54.330Z,101247.00
2018-09-23T05:06:58.642Z,101243.00
2018-09-23T05:09:01.641Z,101240.00
2018-09-23T05:11:04.566Z,101241.00
2018-09-23T05:13:07.570Z,101238.00
2018-09-23T05:15:10.487Z,101236.00
2018-09-23T05:17:13.886Z,101233.00
2018-09-23T05:19:16.919Z,101230.00
2018-09-23T05:21:19.854Z,101236.00
2018-09-23T05:23:22.835Z,101232.00
2018-09-23T05:25:28.152Z,101231.00
2018-09-23T05:27:31.155Z,101237.00
2018-09-23T05:29:34.376Z,101236.00
2018-09-23T05:31:37.311Z,101234.00
2018-09-23T05:34:14.049Z,101235.00
2018-09-23T05:36:17.035Z,101234.00
2018-09-23T05:38:20.274Z,101228.00
2018-09-23T05:40:23.751Z,101228.00
2018-09-23T05:42:28.893Z,101216.00
2018-09-23T05:44:31.869Z,101215.00
2018-09-23T05:46:34.874Z,101214.00
2018-09-23T05:48:37.833Z,101214.00
2018-09-23T05:50:40.826Z,101211.00
2018-09-23T05:52:43.790Z,101205.00
2018-09-23T05:54:46.765Z,101203.00
2018-09-23T05:56:49.882Z,101200.00
2018-09-23T05:58:52.863Z,101197.00
2018-09-23T06:00:57.356Z,101195.00
2018-09-23T06:03:00.325Z,101184.00
2018-09-23T06:05:03.329Z,101186.00
2018-09-23T06:07:06.356Z,101187.00
2018-09-23T06:09:09.343Z,101187.00
2018-09-23T06:11:12.322Z,101181.00
2018-09-23T06:13:15.262Z,101181.00
2018-09-23T06:15:18.434Z,101178.00
2018-09-23T06:17:21.421Z,101186.00
2018-09-23T06:19:24.440Z,101187.00
2018-09-23T06:21:28.985Z,101180.00
2018-09-23T06:23:31.991Z,101188.00
2018-09-23T06:25:34.987Z,101186.00
2018-09-23T06:27:38.182Z,101188.00
2018-09-23T06:29:41.154Z,101196.00
2018-09-23T06:31:44.129Z,101197.00
2018-09-23T06:33:47.124Z,101194.00
2018-09-23T06:35:50.061Z,101194.00
2018-09-23T06:37:53.013Z,101196.00
2018-09-23T06:39:57.874Z,101209.00
2018-09-23T06:42:00.876Z,101227.00
2018-09-23T06:44:03.870Z,101219.00
2018-09-23T06:46:06.869Z,101210.00
2018-09-23T06:48:09.875Z,101209.00
2018-09-23T06:50:12.884Z,101208.00
2018-09-23T06:52:15.836Z,101196.00
2018-09-23T06:54:18.836Z,101199.00
2018-09-23T06:56:21.857Z,101201.00
2018-09-23T06:58:24.945Z,101201.00
2018-09-23T07:00:30.008Z,101192.00
2018-09-23T07:02:32.969Z,101188.00
2018-09-23T07:04:36.140Z,101191.00
2018-09-23T07:06:39.097Z,101195.00
2018-09-23T07:08:42.091Z,101195.00
2018-09-23T07:10:45.242Z,101198.00
2018-09-23T07:12:48.230Z,101202.00
2018-09-23T07:14:51.200Z,101199.00
2018-09-23T07:16:54.216Z,101191.00
2018-09-23T07:18:58.394Z,101196.00
2018-09-23T07:21:01.355Z,101199.00
2018-09-23T07:23:04.392Z,101203.00
2018-09-23T07:25:07.421Z,101205.00
2018-09-23T07:27:10.420Z,101203.00
2018-09-23T07:29:13.555Z,101195.00
2018-09-23T07:31:16.566Z,101194.00
2018-09-23T07:33:19.502Z,101191.00
2018-09-23T07:35:22.550Z,101196.00
2018-09-23T07:37:25.595Z,101190.00
2018-09-23T07:39:30.110Z,101192.00
2018-09-23T07:41:33.016Z,101208.00
2018-09-23T07:43:35.986Z,101209.00
2018-09-23T07:45:39.076Z,101212.00
2018-09-23T07:47:42.016Z,101210.00
2018-09-23T07:49:44.954Z,101209.00
2018-09-23T07:51:48.065Z,101214.00
2018-09-23T07:53:51.034Z,101213.00
2018-09-23T07:55:53.982Z,101198.00
2018-09-23T07:57:57.231Z,101195.00
2018-09-23T08:00:00.563Z,101198.00
2018-09-23T08:02:03.535Z,101199.00
2018-09-23T08:04:06.557Z,101191.00
2018-09-23T08:06:09.539Z,101182.00
2018-09-23T08:08:12.511Z,101191.00
2018-09-23T08:10:15.516Z,101179.00
2018-09-23T08:12:18.563Z,101169.00
2018-09-23T08:14:21.918Z,101162.00
2018-09-23T08:16:24.587Z,101163.00
2018-09-23T08:18:29.110Z,101158.00
2018-09-23T08:20:32.142Z,101150.00
2018-09-23T08:22:35.050Z,101138.00
2018-09-23T08:24:38.035Z,101143.00
2018-09-23T08:26:41.093Z,101147.00
2018-09-23T08:28:44.031Z,101130.00
2018-09-23T08:30:47.106Z,101125.00
2018-09-23T08:32:50.938Z,101131.00
2018-09-23T08:34:53.932Z,101129.00
2018-09-23T08:36:58.198Z,101131.00
2018-09-23T08:39:01.209Z,101136.00
2018-09-23T08:41:04.392Z,101139.00
2018-09-23T08:43:07.475Z,101141.00
2018-09-23T08:45:10.444Z,101137.00
2018-09-23T08:47:13.633Z,101137.00
2018-09-23T08:49:16.579Z,101128.00
2018-09-23T08:51:19.921Z,101132.00
2018-09-23T08:53:23.130Z,101135.00
2018-09-23T08:55:27.936Z,101135.00
2018-09-23T08:57:30.999Z,101133.00
2018-09-23T08:59:34.137Z,101129.00
2018-09-23T09:01:37.082Z,101129.00
2018-09-23T09:03:41.033Z,101127.00
2018-09-23T09:05:44.959Z,101110.00
2018-09-23T09:07:48.557Z,101100.00
2018-09-23T09:09:52.170Z,101095.00
2018-09-23T09:11:57.454Z,101088.00
2018-09-23T09:14:00.787Z,101082.00
2018-09-23T09:16:04.726Z,101077.00
2018-09-23T09:18:07.789Z,101076.00
2018-09-23T09:20:11.677Z,101071.00
2018-09-23T09:22:15.647Z,101071.00
2018-09-23T09:24:19.557Z,101068.00
2018-09-23T09:26:23.116Z,101062.00
2018-09-23T09:28:28.460Z,101052.00
2018-09-23T09:30:32.385Z,101056.00
2018-09-23T09:32:36.245Z,101059.00
2018-09-23T09:34:40.001Z,101045.00
2018-09-23T09:36:43.912Z,101061.00
2018-09-23T09:38:47.812Z,101060.00
2018-09-23T09:40:51.295Z,101055.00
2018-09-23T09:42:54.889Z,101058.00
2018-09-23T09:45:00.803Z,101055.00
2018-09-23T09:47:04.862Z,101053.00
2018-09-23T09:49:08.632Z,101053.00
2018-09-23T09:51:11.657Z,101062.00
2018-09-23T09:53:14.648Z,101070.00
2018-09-23T09:55:17.844Z,101069.00
2018-09-23T09:57:20.831Z,101063.00
2018-09-23T09:59:23.789Z,101057.00
2018-09-23T10:01:27.200Z,101060.00
2018-09-23T10:03:30.393Z,101052.00
2018-09-23T10:05:33.444Z,101056.00
2018-09-23T10:07:36.448Z,101047.00
2018-09-23T10:09:39.488Z,101044.00
2018-09-23T10:11:42.494Z,101034.00
2018-09-23T10:13:45.515Z,101034.00
2018-09-23T10:15:48.541Z,101031.00
2018-09-23T10:17:51.581Z,101029.00
2018-09-23T10:19:54.562Z,101022.00
2018-09-23T10:21:59.005Z,101014.00
2018-09-23T10:24:02.073Z,101000.00
2018-09-23T10:26:05.421Z,100997.00
2018-09-23T10:28:08.483Z,100994.00
2018-09-23T10:30:11.470Z,100991.00
2018-09-23T10:32:14.496Z,100987.00
2018-09-23T10:34:17.569Z,100989.00
2018-09-23T10:36:20.575Z,100990.00
2018-09-23T10:38:23.656Z,100978.00
2018-09-23T10:40:28.381Z,100963.00
2018-09-23T10:42:31.403Z,100957.00
2018-09-23T10:44:34.406Z,100949.00
2018-09-23T10:46:37.733Z,100936.00
2018-09-23T10:48:40.765Z,100914.00
2018-09-23T10:50:43.807Z,100931.00
2018-09-23T10:52:46.860Z,100935.00
2018-09-23T10:54:49.903Z,100934.00
2018-09-23T10:56:52.970Z,100930.00
2018-09-23T10:58:57.476Z,100919.00
2018-09-23T11:01:00.502Z,100906.00
2018-09-23T11:03:03.598Z,100907.00
2018-09-23T11:05:06.820Z,100891.00
2018-09-23T11:07:09.877Z,100875.00
2018-09-23T11:09:12.887Z,100874.00
2018-09-23T11:11:16.324Z,100886.00
2018-09-23T11:13:19.372Z,100880.00
2018-09-23T11:15:22.477Z,100878.00
2018-09-23T11:17:25.460Z,100869.00
2018-09-23T11:19:29.861Z,100862.00
2018-09-23T11:21:32.900Z,100874.00
2018-09-23T11:23:36.319Z,100881.00
2018-09-23T11:25:39.325Z,100867.00
2018-09-23T11:27:42.360Z,100861.00
2018-09-23T11:29:45.556Z,100856.00
2018-09-23T11:31:48.626Z,100844.00
2018-09-23T11:33:51.685Z,100846.00
2018-09-23T11:35:54.913Z,100833.00
2018-09-23T11:38:01.049Z,100828.00
2018-09-23T11:40:04.525Z,100823.00
2018-09-23T11:42:07.771Z,100815.00
2018-09-23T11:44:10.779Z,100805.00
2018-09-23T11:46:13.787Z,100793.00
2018-09-23T11:48:16.829Z,100801.00
2018-09-23T11:50:19.832Z,100793.00
2018-09-23T11:52:22.904Z,100788.00
2018-09-23T11:54:27.539Z,100781.00
2018-09-23T11:56:30.543Z,100776.00
2018-09-23T11:58:33.544Z,100759.00
2018-09-23T12:00:36.872Z,100767.00
2018-09-23T12:02:40.808Z,100757.00
2018-09-23T12:04:43.790Z,100757.00
2018-09-23T12:06:47.788Z,100747.00
2018-09-23T12:08:50.806Z,100728.00
2018-09-23T12:10:53.925Z,100729.00
2018-09-23T12:12:58.166Z,100725.00
2018-09-23T12:15:01.182Z,100722.00
2018-09-23T12:17:04.236Z,100712.00
2018-09-23T12:19:07.268Z,100704.00
2018-09-23T12:21:10.315Z,100704.00
2018-09-23T12:23:13.339Z,100688.00
2018-09-23T12:25:16.375Z,100686.00
2018-09-23T12:27:19.447Z,100690.00
2018-09-23T12:29:22.487Z,100695.00
2018-09-23T12:31:25.532Z,100701.00
2018-09-23T12:33:30.069Z,100699.00
2018-09-23T12:35:33.167Z,100687.00
2018-09-23T12:37:36.212Z,100692.00
2018-09-23T12:39:39.258Z,100691.00
2018-09-23T12:41:42.389Z,100686.00
2018-09-23T12:43:45.424Z,100684.00
2018-09-23T12:45:48.539Z,100683.00
2018-09-23T12:47:51.774Z,100685.00
2018-09-23T12:49:54.874Z,100680.00
2018-09-23T12:51:59.310Z,100674.00
2018-09-23T12:54:02.402Z,100661.00
2018-09-23T12:56:05.570Z,100650.00
2018-09-23T12:58:08.687Z,100654.00
2018-09-23T13:00:11.697Z,100651.00
2018-09-23T13:02:14.844Z,100649.00
2018-09-23T13:04:17.839Z,100648.00
2018-09-23T13:06:20.874Z,100652.00
2018-09-23T13:08:24.077Z,100666.00
2018-09-23T13:10:27.549Z,100670.00
2018-09-23T13:12:30.589Z,100673.00
2018-09-23T13:14:33.647Z,100677.00
2018-09-23T13:16:36.745Z,100683.00
2018-09-23T13:18:39.782Z,100679.00
2018-09-23T13:20:42.908Z,100668.00
2018-09-23T13:22:45.949Z,100647.00
2018-09-23T13:24:49.156Z,100640.00
2018-09-23T13:26:52.151Z,100643.00
2018-09-23T13:28:55.310Z,100626.00
2018-09-23T13:31:00.158Z,100610.00
2018-09-23T13:33:03.197Z,100613.00
2018-09-23T13:35:06.237Z,100620.00
2018-09-23T13:37:09.228Z,100625.00
2018-09-23T13:39:12.520Z,100607.00
2018-09-23T13:41:15.527Z,100596.00
2018-09-23T13:43:18.531Z,100598.00
2018-09-23T13:45:21.646Z,100592.00
2018-09-23T13:47:24.702Z,100581.00
2018-09-23T13:49:29.333Z,100552.00
2018-09-23T13:51:32.368Z,100538.00
2018-09-23T13:53:35.400Z,100541.00
2018-09-23T13:55:38.572Z,100535.00
2018-09-23T13:57:41.577Z,100519.00
2018-09-23T13:59:44.539Z,100499.00
2018-09-23T14:01:47.550Z,100496.00
2018-09-23T14:03:50.519Z,100478.00
2018-09-23T14:05:53.584Z,100452.00
2018-09-23T14:07:59.197Z,100439.00
2018-09-23T14:10:02.230Z,100429.00
2018-09-23T14:12:06.174Z,100419.00
2018-09-23T14:14:09.233Z,100409.00
2018-09-23T14:16:12.314Z,100406.00
2018-09-23T14:18:15.622Z,100375.00
2018-09-23T14:20:18.621Z,100362.00
2018-09-23T14:22:21.605Z,100342.00
2018-09-23T14:24:24.680Z,100335.00
2018-09-23T14:26:29.307Z,100336.00
2018-09-23T14:28:32.331Z,100338.00
2018-09-23T14:30:35.374Z,100349.00
2018-09-23T14:32:38.552Z,100364.00
2018-09-23T14:34:41.551Z,100366.00
2018-09-23T14:36:44.559Z,100367.00
2018-09-23T14:38:47.588Z,100367.00
2018-09-23T14:40:50.581Z,100352.00
2018-09-23T14:42:53.598Z,100363.00
2018-09-23T14:44:58.161Z,100362.00
2018-09-23T14:47:01.159Z,100355.00
2018-09-23T14:49:04.213Z,100347.00
2018-09-23T14:51:07.234Z,100345.00
2018-09-23T14:53:10.240Z,100340.00
2018-09-23T14:55:13.308Z,100331.00
2018-09-23T14:57:16.341Z,100330.00
2018-09-23T14:59:19.380Z,100325.00
2018-09-23T15:01:22.386Z,100330.00
2018-09-23T15:03:25.729Z,100340.00
2018-09-23T15:05:29.917Z,100350.00
2018-09-23T15:07:32.929Z,100369.00
2018-09-23T15:09:35.986Z,100386.00
2018-09-23T15:11:39.053Z,100389.00
2018-09-23T15:13:42.104Z,100384.00
2018-09-23T15:15:45.288Z,100354.00
2018-09-23T15:17:48.313Z,100349.00
2018-09-23T15:19:51.415Z,100345.00
2018-09-23T15:21:54.636Z,100332.00
2018-09-23T15:23:59.453Z,100328.00
2018-09-23T15:26:02.581Z,100328.00
2018-09-23T15:28:05.856Z,100313.00
2018-09-23T15:30:08.883Z,100307.00
2018-09-23T15:32:11.983Z,100306.00
2018-09-23T15:34:15.132Z,100308.00
2018-09-23T15:36:18.182Z,100307.00
2018-09-23T15:38:21.211Z,100312.00
2018-09-23T15:40:24.353Z,100309.00
2018-09-23T15:42:28.978Z,100301.00
2018-09-23T15:44:31.994Z,100301.00
2018-09-23T15:46:35.069Z,100298.00
2018-09-23T15:48:38.103Z,100293.00
2018-09-23T15:50:41.502Z,100286.00
2018-09-23T15:52:44.565Z,100277.00
2018-09-23T15:54:47.623Z,100272.00
2018-09-23T15:56:50.735Z,100262.00
2018-09-23T15:58:53.794Z,100268.00
2018-09-23T16:00:58.541Z,100274.00
2018-09-23T16:03:01.782Z,100277.00
2018-09-23T16:05:04.965Z,100291.00
2018-09-23T16:07:08.078Z,100289.00
2018-09-23T16:09:11.169Z,100274.00
2018-09-23T16:11:14.225Z,100262.00
2018-09-23T16:13:17.259Z,100262.00
2018-09-23T16:15:20.769Z,100255.00
2018-09-23T16:17:23.946Z,100260.00
2018-09-23T16:19:28.867Z,100285.00
2018-09-23T16:21:31.991Z,100283.00
2018-09-23T16:23:35.039Z,100258.00
2018-09-23T16:25:38.046Z,100250.00
2018-09-23T16:27:41.189Z,100255.00
2018-09-23T16:29:44.192Z,100251.00
2018-09-23T16:31:47.278Z,100245.00
2018-09-23T16:33:50.365Z,100226.00
2018-09-23T16:35:53.439Z,100208.00
2018-09-23T16:37:58.188Z,100199.00
2018-09-23T16:40:01.250Z,100188.00
2018-09-23T16:42:04.331Z,100181.00
2018-09-23T16:44:08.100Z,100159.00
2018-09-23T16:46:11.348Z,100140.00
2018-09-23T16:48:14.559Z,100074.00
2018-09-23T16:50:18.267Z,100059.00
2018-09-23T16:52:22.046Z,100085.00
2018-09-23T16:54:28.002Z,100132.00
2018-09-23T16:56:31.478Z,100167.00
2018-09-23T16:58:35.322Z,100197.00
2018-09-23T17:00:39.238Z,100209.00
2018-09-23T17:02:43.719Z,100212.00
2018-09-23T17:04:47.591Z,100189.00
2018-09-23T17:06:51.355Z,100211.00
2018-09-23T17:08:55.085Z,100241.00
2018-09-23T17:11:00.050Z,100193.00
2018-09-23T17:13:03.832Z,100160.00
2018-09-23T17:15:07.490Z,100190.00
2018-09-23T17:17:10.974Z,100228.00
2018-09-23T17:19:15.043Z,100266.00
2018-09-23T17:21:18.908Z,100289.00
2018-09-23T17:23:22.371Z,100283.00
2018-09-23T17:25:27.958Z,100261.00
2018-09-23T17:27:31.586Z,100245.00
2018-09-23T17:29:35.425Z,100238.00
2018-09-23T17:31:39.377Z,100263.00
2018-09-23T17:33:42.708Z,100270.00
2018-09-23T17:35:45.975Z,100285.00
2018-09-23T17:37:50.092Z,100253.00
2018-09-23T17:39:54.038Z,100257.00
2018-09-23T17:41:59.111Z,100297.00
2018-09-23T17:44:02.821Z,100328.00
2018-09-23T17:46:06.768Z,100316.00
2018-09-23T17:48:10.023Z,100314.00
2018-09-23T17:50:13.903Z,100345.00
2018-09-23T17:52:17.800Z,100355.00
2018-09-23T17:54:21.737Z,100356.00
2018-09-23T17:56:27.450Z,100381.00
2018-09-23T17:58:30.885Z,100409.00
2018-09-23T18:00:34.705Z,100380.00
2018-09-23T18:02:38.452Z,100354.00
2018-09-23T18:04:42.154Z,100353.00
2018-09-23T18:06:46.111Z,100352.00
2018-09-23T18:08:50.090Z,100353.00
2018-09-23T18:10:53.798Z,100371.00
2018-09-23T18:12:58.951Z,100411.00
2018-09-23T18:15:03.125Z,100435.00
2018-09-23T18:17:07.219Z,100467.00
2018-09-23T18:19:11.013Z,100486.00
2018-09-23T18:21:15.083Z,100475.00
2018-09-23T18:23:19.033Z,100483.00
2018-09-23T18:25:23.140Z,100506.00
2018-09-23T18:27:28.774Z,100548.00
2018-09-23T18:29:32.180Z,100569.00
2018-09-23T18:31:36.110Z,100563.00
2018-09-23T18:33:40.021Z,100558.00
2018-09-23T18:35:43.032Z,100528.00
2018-09-23T18:37:46.084Z,100501.00
2018-09-23T18:39:49.141Z,100501.00
2018-09-23T18:41:52.929Z,100518.00
2018-09-23T18:43:58.644Z,100515.00
2018-09-23T18:46:02.479Z,100511.00
2018-09-23T18:48:05.688Z,100499.00
2018-09-23T18:50:09.607Z,100508.00
2018-09-23T18:52:13.537Z,100518.00
2018-09-23T18:54:22.621Z,100502.00
2018-09-23T18:56:27.879Z,100506.00
2018-09-23T18:58:31.326Z,100511.00
2018-09-23T19:00:34.691Z,100515.00
2018-09-23T19:02:38.835Z,100516.00
2018-09-23T19:04:42.710Z,100508.00
2018-09-23T19:06:46.863Z,100523.00
2018-09-23T19:08:50.787Z,100528.00
2018-09-23T19:10:54.290Z,100551.00
2018-09-23T19:13:04.683Z,100593.00
2018-09-23T19:15:08.011Z,100636.00
2018-09-23T19:17:11.241Z,100680.00
2018-09-23T19:19:14.505Z,100697.00
2018-09-23T19:21:17.529Z,100702.00
2018-09-23T19:23:21.432Z,100708.00
2018-09-23T19:25:25.190Z,100691.00
2018-09-23T19:27:29.967Z,100698.00
2018-09-23T19:29:34.516Z,100686.00
2018-09-23T19:31:38.461Z,100676.00
2018-09-23T19:33:41.623Z,100694.00
2018-09-23T19:35:44.964Z,100676.00
2018-09-23T19:37:48.770Z,100678.00
2018-09-23T19:39:51.860Z,100681.00
2018-09-23T19:41:55.526Z,100679.00
2018-09-23T19:44:00.706Z,100679.00
2018-09-23T19:46:05.469Z,100684.00
2018-09-23T19:48:08.552Z,100686.00
2018-09-23T19:50:11.603Z,100668.00
2018-09-23T19:52:14.722Z,100687.00
2018-09-23T19:54:17.775Z,100684.00
2018-09-23T19:56:20.801Z,100690.00
2018-09-23T19:58:23.857Z,100684.00
2018-09-23T20:00:28.528Z,100694.00
2018-09-23T20:02:31.594Z,100706.00
2018-09-23T20:04:34.669Z,100703.00
2018-09-23T20:06:37.835Z,100712.00
2018-09-23T20:08:40.827Z,100729.00
2018-09-23T20:10:43.921Z,100731.00
2018-09-23T20:12:46.929Z,100725.00
2018-09-23T20:14:50.259Z,100729.00
2018-09-23T20:16:53.736Z,100725.00
2018-09-23T20:18:58.237Z,100733.00
2018-09-23T20:21:01.296Z,100755.00
2018-09-23T20:23:19.945Z,100765.00
2018-09-23T20:25:29.816Z,100781.00
2018-09-23T20:27:32.873Z,100785.00
2018-09-23T20:29:36.145Z,100791.00
2018-09-23T20:31:40.417Z,100793.00
2018-09-23T20:33:44.185Z,100801.00
2018-09-23T20:35:47.295Z,100804.00
2018-09-23T20:37:50.437Z,100818.00
2018-09-23T20:39:53.577Z,100827.00
2018-09-23T20:41:56.807Z,100829.00
2018-09-23T20:43:59.949Z,100841.00
2018-09-23T20:46:03.040Z,100843.00
2018-09-23T20:48:06.148Z,100848.00
2018-09-23T20:50:21.393Z,100866.00
2018-09-23T20:52:24.495Z,100875.00
2018-09-23T20:54:29.543Z,100877.00
2018-09-23T20:56:32.738Z,100878.00
2018-09-23T20:58:35.766Z,100887.00
2018-09-23T21:00:38.800Z,100888.00
2018-09-23T21:02:42.253Z,100891.00
2018-09-23T21:04:45.511Z,100899.00
2018-09-23T21:06:48.572Z,100899.00
2018-09-23T21:08:51.780Z,100900.00
2018-09-23T21:10:54.844Z,100905.00
2018-09-23T21:12:59.741Z,100906.00
2018-09-23T21:15:03.017Z,100909.00
2018-09-23T21:17:06.075Z,100912.00
2018-09-23T21:19:09.099Z,100918.00
2018-09-23T21:21:12.150Z,100924.00
2018-09-23T21:23:15.200Z,100924.00
2018-09-23T21:25:18.210Z,100922.00
2018-09-23T21:27:21.279Z,100935.00
2018-09-23T21:29:24.313Z,100946.00
2018-09-23T21:31:28.449Z,100960.00
2018-09-23T21:33:31.703Z,100965.00
2018-09-23T21:35:34.737Z,100968.00
2018-09-23T21:37:37.762Z,100974.00
2018-09-23T21:39:40.810Z,100980.00
2018-09-23T21:41:43.867Z,100982.00
2018-09-23T21:43:46.979Z,100990.00
2018-09-23T21:45:50.325Z,100989.00
2018-09-23T21:47:53.360Z,100990.00
2018-09-23T21:49:58.069Z,100997.00
2018-09-23T21:52:01.129Z,101002.00
2018-09-23T21:54:04.575Z,101003.00
2018-09-23T21:56:07.639Z,101016.00
2018-09-23T21:58:10.728Z,101020.00
2018-09-23T22:00:13.803Z,101027.00
2018-09-23T22:02:17.019Z,101035.00
2018-09-23T22:04:20.193Z,101042.00
2018-09-23T22:06:23.339Z,101044.00
2018-09-23T22:08:28.716Z,101047.00
2018-09-23T22:10:31.758Z,101048.00
2018-09-23T22:12:34.849Z,101049.00
2018-09-23T22:14:38.107Z,101050.00
2018-09-23T22:16:41.143Z,101053.00
2018-09-23T22:18:44.136Z,101051.00
2018-09-23T22:20:47.216Z,101056.00
2018-09-23T22:22:50.302Z,101062.00
2018-09-23T22:24:53.366Z,101066.00
2018-09-23T22:26:58.071Z,101073.00
2018-09-23T22:29:01.309Z,101073.00
2018-09-23T22:31:04.395Z,101077.00
2018-09-23T22:33:07.402Z,101078.00
2018-09-23T22:35:10.442Z,101082.00
2018-09-23T22:37:13.493Z,101085.00
2018-09-23T22:39:16.503Z,101089.00
2018-09-23T22:41:19.513Z,101097.00
2018-09-23T22:43:22.571Z,101094.00
2018-09-23T22:45:25.655Z,101102.00
2018-09-23T22:47:28.776Z,101098.00
2018-09-23T22:49:31.884Z,101105.00
2018-09-23T22:51:34.934Z,101103.00
2018-09-23T22:53:37.949Z,101110.00
2018-09-23T22:55:41.133Z,101111.00
2018-09-23T22:57:44.309Z,101111.00
2018-09-23T22:59:47.556Z,101116.00
2018-09-23T23:01:50.570Z,101114.00
2018-09-23T23:03:53.670Z,101121.00
2018-09-23T23:05:58.221Z,101124.00
2018-09-23T23:08:01.807Z,101127.00
2018-09-23T23:10:04.885Z,101135.00
2018-09-23T23:12:08.000Z,101138.00
2018-09-23T23:14:11.026Z,101140.00
2018-09-23T23:16:14.071Z,101149.00
2018-09-23T23:18:17.308Z,101150.00
2018-09-23T23:20:20.334Z,101155.00
2018-09-23T23:22:23.351Z,101156.00
2018-09-23T23:24:28.128Z,101163.00
2018-09-23T23:26:31.184Z,101177.00
2018-09-23T23:28:34.291Z,101175.00